Aqualoyalty — A8ZC6 — position and weather

sailwx.info

Track history (hours):
 
Tides and Currents Weather Stations Pressure Air Temp Water Temp Dewpoint Dewpoint Depression Visibility Wind Speed Wind Dir Waves Ship Positions

Aqualoyalty

Last reported at 2016-Jul-24 08:33 UTC. Time now 2016-Jul-24 08:46 UTC.
Position N 33°54' W 118°27'.

Length 249 m; draft 13.4 m.

Type: Ship. MMSI: 636015177.

Date/timePositionNaut miles runAvg speedWind from/ knotsBaromVisibWave heightAir tempDewpointWater temp
2016-Jul-24 08:33N 33°54' W 118°27'0 0.0
2016-Jul-24 01:15N 33°54' W 118°27'0 0.0
2016-Jul-24 00:33N 33°54' W 118°27'0 0.0
2016-Jul-23 23:21N 33°54' W 118°27'0 0.0
2016-Jul-23 20:21N 33°54' W 118°27'0 0.0
2016-Jul-23 19:27N 33°54' W 118°27'0 0.0
2016-Jul-23 18:27N 33°54' W 118°27'0 0.1
2016-Jul-23 17:33N 33°54' W 118°27'0 0.0
2016-Jul-23 16:33N 33°54' W 118°27'2 1.7
2016-Jul-23 15:33N 33°53' W 118°29'1 1.3
2016-Jul-23 14:33N 33°52' W 118°30'2 1.4
2016-Jul-23 13:20N 33°51' W 118°30'5 6.0
2016-Jul-23 12:33N 33°46' W 118°30'6 6.2
2016-Jul-23 11:33N 33°41' W 118°26'7 7.2
2016-Jul-23 10:33N 33°38' W 118°18'7 6.8
2016-Jul-23 09:33N 33°42' W 118°11'2 1.7
2016-Jul-23 08:32N 33°44' W 118°12'0 0.1
2016-Jul-23 07:29N 33°44' W 118°12'0 0.0
2016-Jul-23 06:32N 33°44' W 118°12'4 2.1
2016-Jul-23 04:34N 33°41' W 118°08'0 0.4
2016-Jul-23 03:23N 33°41' W 118°08'0 0.0
2016-Jul-23 01:29N 33°41' W 118°08'0 0.0
2016-Jul-23 00:29N 33°41' W 118°08'0 0.0
2016-Jul-22 23:29N 33°41' W 118°08'0 0.0
2016-Jul-22 22:29N 33°41' W 118°08'0 0.0
2016-Jul-22 21:29N 33°41' W 118°08'0 0.0
2016-Jul-22 20:29N 33°41' W 118°08'0 0.0
2016-Jul-22 19:29N 33°41' W 118°08'0 0.0
2016-Jul-22 18:29N 33°41' W 118°08'0 0.1
2016-Jul-22 17:29N 33°41' W 118°08'0 0.0
2016-Jul-22 16:05N 33°41' W 118°08'0 0.0
2016-Jul-22 15:29N 33°41' W 118°08'0 0.0
2016-Jul-22 14:29N 33°41' W 118°08'0 0.0
2016-Jul-22 13:29N 33°41' W 118°08'0 0.0
2016-Jul-22 12:29N 33°41' W 118°08'0 0.0
2016-Jul-22 11:23N 33°41' W 118°08'0 0.0
2016-Jul-22 10:32N 33°41' W 118°08'0 0.0
2016-Jul-22 09:29N 33°41' W 118°08'0 0.1
2016-Jul-22 08:29N 33°41' W 118°08'0 0.0
2016-Jul-22 07:29N 33°41' W 118°08'0 0.0
2016-Jul-22 04:29N 33°41' W 118°08'0 0.0
2016-Jul-22 03:29N 33°41' W 118°08'0 0.0
2016-Jul-22 02:32N 33°41' W 118°08'0 0.0
2016-Jul-22 01:29N 33°41' W 118°08'0 0.0
2016-Jul-22 00:29N 33°41' W 118°08'0 0.0
2016-Jul-21 23:23N 33°41' W 118°08'0 0.0
2016-Jul-21 22:29N 33°41' W 118°08'0 0.0
2016-Jul-21 21:29N 33°41' W 118°08'0 0.0
2016-Jul-21 20:32N 33°41' W 118°08'0 0.0
2016-Jul-21 19:29N 33°41' W 118°08'0 0.0
2016-Jul-21 18:29N 33°41' W 118°08'0 0.1
2016-Jul-21 17:23N 33°42' W 118°08'0 0.0
2016-Jul-21 16:23N 33°42' W 118°08'0 0.0
2016-Jul-21 15:29N 33°42' W 118°08'0 0.1
2016-Jul-21 14:29N 33°41' W 118°08'0 0.0
2016-Jul-21 13:23N 33°41' W 118°08'0 0.1
2016-Jul-21 12:29N 33°41' W 118°08'0 0.1
2016-Jul-21 11:17N 33°41' W 118°08'0 0.0
2016-Jul-21 10:29N 33°41' W 118°08'0 0.0
2016-Jul-21 09:29N 33°41' W 118°08'0 0.0
2016-Jul-21 08:29N 33°41' W 118°08'0 0.0
2016-Jul-21 07:23N 33°41' W 118°08'0 0.0
2016-Jul-21 06:29N 33°41' W 118°08'0 0.0
2016-Jul-21 05:29N 33°41' W 118°08'0 0.0
2016-Jul-21 04:17N 33°41' W 118°08'0 0.0
2016-Jul-21 03:29N 33°41' W 118°08'0 0.0
2016-Jul-21 02:23N 33°41' W 118°08'0 0.0
2016-Jul-21 01:29N 33°41' W 118°08'0 0.0
2016-Jul-21 00:29N 33°41' W 118°08'0 0.0
2016-Jul-20 23:29N 33°41' W 118°08'0 0.0
2016-Jul-20 22:29N 33°41' W 118°08'0 0.0
2016-Jul-20 21:29N 33°41' W 118°08'0 0.0
2016-Jul-20 20:29N 33°41' W 118°08'0 0.0
2016-Jul-20 19:29N 33°41' W 118°08'0 0.1
2016-Jul-20 18:32N 33°41' W 118°08'0 0.1
2016-Jul-20 17:23N 33°42' W 118°08'0 0.0
2016-Jul-20 16:29N 33°42' W 118°08'0 0.0
2016-Jul-20 15:29N 33°42' W 118°08'0 0.0
2016-Jul-20 14:29N 33°42' W 118°08'0 0.0
2016-Jul-20 13:23N 33°41' W 118°08'0 0.0
2016-Jul-20 12:32N 33°41' W 118°08'0 0.0
2016-Jul-20 11:20N 33°41' W 118°08'0 0.1
2016-Jul-20 10:32N 33°41' W 118°08'0 0.0
2016-Jul-20 09:29N 33°41' W 118°08'0 0.0
2016-Jul-20 08:32N 33°41' W 118°08'0 0.1
2016-Jul-20 07:32N 33°41' W 118°08'0 0.1
2016-Jul-20 06:32N 33°41' W 118°08'0 0.0
2016-Jul-20 05:32N 33°42' W 118°08'0 0.1
2016-Jul-20 04:32N 33°41' W 118°08'0 0.1
2016-Jul-20 03:32N 33°41' W 118°08'0 0.0
2016-Jul-20 02:32N 33°41' W 118°08'0 0.0
2016-Jul-20 01:29N 33°41' W 118°08'0 0.0
2016-Jul-20 00:29N 33°41' W 118°08'0 0.1
2016-Jul-19 23:32N 33°41' W 118°08'0 0.0
2016-Jul-19 22:32N 33°41' W 118°08'0 0.0
2016-Jul-19 21:32N 33°41' W 118°08'0 0.0
2016-Jul-19 20:32N 33°41' W 118°08'0 0.0
2016-Jul-19 19:32N 33°41' W 118°08'0 0.0
2016-Jul-19 18:32N 33°41' W 118°08'0 0.1
2016-Jul-19 17:32N 33°41' W 118°08'0 0.1
2016-Jul-19 16:32N 33°42' W 118°08'0 0.0
2016-Jul-19 15:32N 33°42' W 118°08'0 0.0
2016-Jul-19 14:32N 33°42' W 118°08'0 0.0
2016-Jul-19 13:32N 33°42' W 118°08'0 0.1
2016-Jul-19 12:32N 33°42' W 118°08'0 0.0
2016-Jul-19 11:32N 33°42' W 118°08'0 0.1
2016-Jul-19 10:29N 33°41' W 118°08'0 0.1
2016-Jul-19 09:32N 33°41' W 118°08'0 0.1
2016-Jul-19 08:32N 33°41' W 118°08'0 0.1
2016-Jul-19 07:32N 33°41' W 118°08'2 0.7
2016-Jul-19 04:34N 33°40' W 118°09'9 8.9
2016-Jul-19 03:33N 33°31' W 118°08'1211.9
2016-Jul-19 02:34N 33°20' W 118°03'1212.2
2016-Jul-19 01:33N 33°10' W 117°54'1211.9
2016-Jul-19 00:33N 33°00' W 117°46'1212.0
2016-Jul-18 23:33N 32°51' W 117°38'1211.8
2016-Jul-18 22:33N 32°42' W 117°28'1010.1
2016-Jul-18 21:34N 32°37' W 117°18'1 0.6
2016-Jul-18 20:33N 32°37' W 117°18'2 1.8
2016-Jul-18 19:34N 32°36' W 117°16'1 0.6
2016-Jul-18 18:33N 32°36' W 117°16'1 0.6
2016-Jul-18 17:33N 32°37' W 117°17'1 0.5
2016-Jul-18 16:34N 32°37' W 117°17'1 0.6
2016-Jul-18 15:34N 32°37' W 117°18'2 1.6
2016-Jul-18 14:33N 32°37' W 117°20'2 1.7
2016-Jul-18 13:33N 32°37' W 117°22'0 0.2
2016-Jul-18 12:33N 32°37' W 117°22'0 0.1
2016-Jul-18 11:34N 32°37' W 117°22'5 5.0
2016-Jul-18 10:34N 32°36' W 117°28'9 8.8
2016-Jul-18 09:33N 32°28' W 117°33'2 1.7
2016-Jul-18 08:34N 32°29' W 117°32'5 5.0
2016-Jul-18 07:34N 32°25' W 117°30'1211.6
2016-Jul-18 06:34N 32°13' W 117°30'1313.1
2016-Jul-18 05:33N 32°00' W 117°30'1413.3
2016-Jul-18 04:32N 31°47' W 117°26'6713.1
2016-Jul-17 23:23N 30°42' W 117°06'1513.0
2016-Jul-17 22:15N 30°27' W 117°01'1213.0
2016-Jul-17 21:20N 30°16' W 116°57'3913.2
2016-Jul-17 18:23N 29°39' W 116°45'4912.8
2016-Jul-17 14:31N 28°51' W 116°31'2913.0
2016-Jul-17 12:17N 28°23' W 116°22'3412.5
2016-Jul-17 09:32N 27°51' W 116°08'2512.2
2016-Jul-17 07:29N 27°31' W 115°51'3711.9
2016-Jul-17 04:22N 27°01' W 115°27'2211.5
2016-Jul-17 02:25N 26°43' W 115°11'1112.4
2016-Jul-17 01:33N 26°34' W 115°04'  
Track history (hours):
 
Tides and Currents Weather Stations Pressure Air Temp Water Temp Dewpoint Dewpoint Depression Visibility Wind Speed Wind Dir Waves Ship Positions

Aqualoyalty

Last reported at 2016-Jul-24 08:33 UTC. Time now 2016-Jul-24 08:46 UTC.
Position N 33°54' W 118°27'.

Length 249 m; draft 13.4 m.

Type: Ship. MMSI: 636015177.

Date/timePositionNaut miles runAvg speedWind from/ knotsBaromVisibWave heightAir tempDewpointWater temp
2016-Jul-24 08:33N 33°54' W 118°27'0 0.0
2016-Jul-24 01:15N 33°54' W 118°27'0 0.0
2016-Jul-24 00:33N 33°54' W 118°27'0 0.0
2016-Jul-23 23:21N 33°54' W 118°27'0 0.0
2016-Jul-23 20:21N 33°54' W 118°27'0 0.0
2016-Jul-23 19:27N 33°54' W 118°27'0 0.0
2016-Jul-23 18:27N 33°54' W 118°27'0 0.1
2016-Jul-23 17:33N 33°54' W 118°27'0 0.0
2016-Jul-23 16:33N 33°54' W 118°27'2 1.7
2016-Jul-23 15:33N 33°53' W 118°29'1 1.3
2016-Jul-23 14:33N 33°52' W 118°30'2 1.4
2016-Jul-23 13:20N 33°51' W 118°30'5 6.0
2016-Jul-23 12:33N 33°46' W 118°30'6 6.2
2016-Jul-23 11:33N 33°41' W 118°26'7 7.2
2016-Jul-23 10:33N 33°38' W 118°18'7 6.8
2016-Jul-23 09:33N 33°42' W 118°11'2 1.7
2016-Jul-23 08:32N 33°44' W 118°12'0 0.1
2016-Jul-23 07:29N 33°44' W 118°12'0 0.0
2016-Jul-23 06:32N 33°44' W 118°12'4 2.1
2016-Jul-23 04:34N 33°41' W 118°08'0 0.4
2016-Jul-23 03:23N 33°41' W 118°08'0 0.0
2016-Jul-23 01:29N 33°41' W 118°08'0 0.0
2016-Jul-23 00:29N 33°41' W 118°08'0 0.0
2016-Jul-22 23:29N 33°41' W 118°08'0 0.0
2016-Jul-22 22:29N 33°41' W 118°08'0 0.0
2016-Jul-22 21:29N 33°41' W 118°08'0 0.0
2016-Jul-22 20:29N 33°41' W 118°08'0 0.0
2016-Jul-22 19:29N 33°41' W 118°08'0 0.0
2016-Jul-22 18:29N 33°41' W 118°08'0 0.1
2016-Jul-22 17:29N 33°41' W 118°08'0 0.0
2016-Jul-22 16:05N 33°41' W 118°08'0 0.0
2016-Jul-22 15:29N 33°41' W 118°08'0 0.0
2016-Jul-22 14:29N 33°41' W 118°08'0 0.0
2016-Jul-22 13:29N 33°41' W 118°08'0 0.0
2016-Jul-22 12:29N 33°41' W 118°08'0 0.0
2016-Jul-22 11:23N 33°41' W 118°08'0 0.0
2016-Jul-22 10:32N 33°41' W 118°08'0 0.0
2016-Jul-22 09:29N 33°41' W 118°08'0 0.1
2016-Jul-22 08:29N 33°41' W 118°08'0 0.0
2016-Jul-22 07:29N 33°41' W 118°08'0 0.0
2016-Jul-22 04:29N 33°41' W 118°08'0 0.0
2016-Jul-22 03:29N 33°41' W 118°08'0 0.0
2016-Jul-22 02:32N 33°41' W 118°08'0 0.0
2016-Jul-22 01:29N 33°41' W 118°08'0 0.0
2016-Jul-22 00:29N 33°41' W 118°08'0 0.0
2016-Jul-21 23:23N 33°41' W 118°08'0 0.0
2016-Jul-21 22:29N 33°41' W 118°08'0 0.0
2016-Jul-21 21:29N 33°41' W 118°08'0 0.0
2016-Jul-21 20:32N 33°41' W 118°08'0 0.0
2016-Jul-21 19:29N 33°41' W 118°08'0 0.0
2016-Jul-21 18:29N 33°41' W 118°08'0 0.1
2016-Jul-21 17:23N 33°42' W 118°08'0 0.0
2016-Jul-21 16:23N 33°42' W 118°08'0 0.0
2016-Jul-21 15:29N 33°42' W 118°08'0 0.1
2016-Jul-21 14:29N 33°41' W 118°08'0 0.0
2016-Jul-21 13:23N 33°41' W 118°08'0 0.1
2016-Jul-21 12:29N 33°41' W 118°08'0 0.1
2016-Jul-21 11:17N 33°41' W 118°08'0 0.0
2016-Jul-21 10:29N 33°41' W 118°08'0 0.0
2016-Jul-21 09:29N 33°41' W 118°08'0 0.0
2016-Jul-21 08:29N 33°41' W 118°08'0 0.0
2016-Jul-21 07:23N 33°41' W 118°08'0 0.0
2016-Jul-21 06:29N 33°41' W 118°08'0 0.0
2016-Jul-21 05:29N 33°41' W 118°08'0 0.0
2016-Jul-21 04:17N 33°41' W 118°08'0 0.0
2016-Jul-21 03:29N 33°41' W 118°08'0 0.0
2016-Jul-21 02:23N 33°41' W 118°08'0 0.0
2016-Jul-21 01:29N 33°41' W 118°08'0 0.0
2016-Jul-21 00:29N 33°41' W 118°08'0 0.0
2016-Jul-20 23:29N 33°41' W 118°08'0 0.0
2016-Jul-20 22:29N 33°41' W 118°08'0 0.0
2016-Jul-20 21:29N 33°41' W 118°08'0 0.0
2016-Jul-20 20:29N 33°41' W 118°08'0 0.0
2016-Jul-20 19:29N 33°41' W 118°08'0 0.1
2016-Jul-20 18:32N 33°41' W 118°08'0 0.1
2016-Jul-20 17:23N 33°42' W 118°08'0 0.0
2016-Jul-20 16:29N 33°42' W 118°08'0 0.0
2016-Jul-20 15:29N 33°42' W 118°08'0 0.0
2016-Jul-20 14:29N 33°42' W 118°08'0 0.0
2016-Jul-20 13:23N 33°41' W 118°08'0 0.0
2016-Jul-20 12:32N 33°41' W 118°08'0 0.0
2016-Jul-20 11:20N 33°41' W 118°08'0 0.1
2016-Jul-20 10:32N 33°41' W 118°08'0 0.0
2016-Jul-20 09:29N 33°41' W 118°08'0 0.0
2016-Jul-20 08:32N 33°41' W 118°08'0 0.1
2016-Jul-20 07:32N 33°41' W 118°08'0 0.1
2016-Jul-20 06:32N 33°41' W 118°08'0 0.0
2016-Jul-20 05:32N 33°42' W 118°08'0 0.1
2016-Jul-20 04:32N 33°41' W 118°08'0 0.1
2016-Jul-20 03:32N 33°41' W 118°08'0 0.0
2016-Jul-20 02:32N 33°41' W 118°08'0 0.0
2016-Jul-20 01:29N 33°41' W 118°08'0 0.0
2016-Jul-20 00:29N 33°41' W 118°08'0 0.1
2016-Jul-19 23:32N 33°41' W 118°08'0 0.0
2016-Jul-19 22:32N 33°41' W 118°08'0 0.0
2016-Jul-19 21:32N 33°41' W 118°08'0 0.0
2016-Jul-19 20:32N 33°41' W 118°08'0 0.0
2016-Jul-19 19:32N 33°41' W 118°08'0 0.0
2016-Jul-19 18:32N 33°41' W 118°08'0 0.1
2016-Jul-19 17:32N 33°41' W 118°08'0 0.1
2016-Jul-19 16:32N 33°42' W 118°08'0 0.0
2016-Jul-19 15:32N 33°42' W 118°08'0 0.0
2016-Jul-19 14:32N 33°42' W 118°08'0 0.0
2016-Jul-19 13:32N 33°42' W 118°08'0 0.1
2016-Jul-19 12:32N 33°42' W 118°08'0 0.0
2016-Jul-19 11:32N 33°42' W 118°08'0 0.1
2016-Jul-19 10:29N 33°41' W 118°08'0 0.1
2016-Jul-19 09:32N 33°41' W 118°08'0 0.1
2016-Jul-19 08:32N 33°41' W 118°08'0 0.1
2016-Jul-19 07:32N 33°41' W 118°08'2 0.7
2016-Jul-19 04:34N 33°40' W 118°09'9 8.9
2016-Jul-19 03:33N 33°31' W 118°08'1211.9
2016-Jul-19 02:34N 33°20' W 118°03'1212.2
2016-Jul-19 01:33N 33°10' W 117°54'1211.9
2016-Jul-19 00:33N 33°00' W 117°46'1212.0
2016-Jul-18 23:33N 32°51' W 117°38'1211.8
2016-Jul-18 22:33N 32°42' W 117°28'1010.1
2016-Jul-18 21:34N 32°37' W 117°18'1 0.6
2016-Jul-18 20:33N 32°37' W 117°18'2 1.8
2016-Jul-18 19:34N 32°36' W 117°16'1 0.6
2016-Jul-18 18:33N 32°36' W 117°16'1 0.6
2016-Jul-18 17:33N 32°37' W 117°17'1 0.5
2016-Jul-18 16:34N 32°37' W 117°17'1 0.6
2016-Jul-18 15:34N 32°37' W 117°18'2 1.6
2016-Jul-18 14:33N 32°37' W 117°20'2 1.7
2016-Jul-18 13:33N 32°37' W 117°22'0 0.2
2016-Jul-18 12:33N 32°37' W 117°22'0 0.1
2016-Jul-18 11:34N 32°37' W 117°22'5 5.0
2016-Jul-18 10:34N 32°36' W 117°28'9 8.8
2016-Jul-18 09:33N 32°28' W 117°33'2 1.7
2016-Jul-18 08:34N 32°29' W 117°32'5 5.0
2016-Jul-18 07:34N 32°25' W 117°30'1211.6
2016-Jul-18 06:34N 32°13' W 117°30'1313.1
2016-Jul-18 05:33N 32°00' W 117°30'1413.3
2016-Jul-18 04:32N 31°47' W 117°26'6713.1
2016-Jul-17 23:23N 30°42' W 117°06'1513.0
2016-Jul-17 22:15N 30°27' W 117°01'1213.0
2016-Jul-17 21:20N 30°16' W 116°57'3913.2
2016-Jul-17 18:23N 29°39' W 116°45'4912.8
2016-Jul-17 14:31N 28°51' W 116°31'2913.0
2016-Jul-17 12:17N 28°23' W 116°22'3412.5
2016-Jul-17 09:32N 27°51' W 116°08'2512.2
2016-Jul-17 07:29N 27°31' W 115°51'3711.9
2016-Jul-17 04:22N 27°01' W 115°27'2211.5
2016-Jul-17 02:25N 26°43' W 115°11'1112.4
2016-Jul-17 01:33N 26°34' W 115°04'  

Dump ship's entire track history